Time;durP1;ratioP1;P1;durP2;ratioP2;P2;SDS_P1;SDS_P2;PMS_P1;PMS_P2;Temp;Humidity;BMP_temperature;BMP_pressure;BME280_temperature;BME280_humidity;BME280_pressure;Samples;Min_cycle;Max_cycle;Signal;HPM_P1;HPM_P2
2021/10/14 00:01:28;;;;;;;1.90;1.73;;;6.50;99.90;;;;;;6096923;23;20746;-81
2021/10/14 00:04:14;;;;;;;1.90;1.80;;;6.60;99.90;;;;;;6095816;23;20390;-81
2021/10/14 00:07:00;;;;;;;1.98;1.73;;;6.60;99.90;;;;;;6122833;23;20937;-80
2021/10/14 00:09:46;;;;;;;2.28;2.05;;;6.60;99.90;;;;;;6108746;23;20844;-81
2021/10/14 00:12:33;;;;;;;1.88;1.77;;;6.60;99.90;;;;;;6116884;23;20735;-81
2021/10/14 00:15:20;;;;;;;2.20;1.77;;;6.50;99.90;;;;;;6102598;23;20462;-81
2021/10/14 00:18:06;;;;;;;1.90;1.80;;;6.60;99.90;;;;;;6108561;23;20415;-81
2021/10/14 00:20:53;;;;;;;2.17;2.00;;;6.60;99.90;;;;;;6117822;23;20963;-80
2021/10/14 00:23:39;;;;;;;1.77;1.67;;;6.60;99.90;;;;;;6131757;23;20983;-80
2021/10/14 00:26:27;;;;;;;1.98;1.88;;;6.50;99.90;;;;;;6119838;23;20781;-80
2021/10/14 00:29:13;;;;;;;1.90;1.80;;;6.50;99.90;;;;;;6118126;23;20699;-81
2021/10/14 00:31:59;;;;;;;2.42;1.88;;;6.50;99.90;;;;;;6140791;23;20374;-81
2021/10/14 00:34:48;;;;;;;2.17;1.97;;;6.50;99.90;;;;;;6074838;23;20483;-81
2021/10/14 00:37:48;;;;;;;1.92;1.80;;;6.50;99.90;;;;;;6118410;23;20901;-81
2021/10/14 00:40:35;;;;;;;1.80;1.60;;;6.50;99.90;;;;;;6095200;23;20759;-80
2021/10/14 00:43:23;;;;;;;1.92;1.83;;;6.50;99.90;;;;;;6120934;23;20375;-80
2021/10/14 00:46:17;;;;;;;1.77;1.67;;;6.50;99.90;;;;;;6107198;23;20386;-81
2021/10/14 00:49:04;;;;;;;2.08;1.95;;;6.60;99.90;;;;;;6115560;23;20440;-81
2021/10/14 00:51:51;;;;;;;1.95;1.80;;;6.60;99.90;;;;;;6116644;23;20406;-80
2021/10/14 00:54:37;;;;;;;2.00;1.90;;;6.60;99.90;;;;;;6137749;23;21023;-80
2021/10/14 00:57:23;;;;;;;1.90;1.80;;;6.60;99.90;;;;;;6098200;23;20486;-81
2021/10/14 01:00:11;;;;;;;2.20;1.83;;;6.60;99.90;;;;;;6098073;23;20372;-81
2021/10/14 01:02:58;;;;;;;2.00;1.90;;;6.60;99.90;;;;;;6120024;23;20372;-81
2021/10/14 01:05:43;;;;;;;3.42;2.15;;;6.60;99.90;;;;;;6096625;23;20366;-81
2021/10/14 01:08:30;;;;;;;1.95;1.85;;;6.60;99.90;;;;;;6080206;23;20374;-81
2021/10/14 01:11:17;;;;;;;2.17;2.00;;;6.70;99.90;;;;;;6119756;23;20481;-80
2021/10/14 01:14:03;;;;;;;2.20;2.00;;;6.70;99.90;;;;;;6089424;23;20378;-80
2021/10/14 01:16:49;;;;;;;1.80;1.70;;;6.70;99.90;;;;;;6084091;23;20382;-80
2021/10/14 01:19:40;;;;;;;2.17;2.00;;;6.70;99.90;;;;;;6071169;23;20530;-80
2021/10/14 01:22:26;;;;;;;2.03;1.92;;;6.70;99.90;;;;;;6104079;23;20425;-81
2021/10/14 01:25:12;;;;;;;1.90;1.80;;;6.70;99.90;;;;;;6103467;23;21063;-81
2021/10/14 01:27:57;;;;;;;2.53;1.90;;;6.70;99.90;;;;;;6110224;23;20414;-81
2021/10/14 01:30:43;;;;;;;1.90;1.77;;;6.80;99.90;;;;;;6077563;23;20381;-81
2021/10/14 01:33:30;;;;;;;1.90;1.80;;;6.80;99.90;;;;;;6097728;23;20907;-80
2021/10/14 01:36:18;;;;;;;1.55;1.45;;;6.80;99.90;;;;;;6118341;23;20382;-80
2021/10/14 01:39:04;;;;;;;1.73;1.63;;;6.80;99.90;;;;;;6079925;23;20478;-81
2021/10/14 01:41:52;;;;;;;1.70;1.60;;;6.80;99.90;;;;;;6083341;23;20378;-81
2021/10/14 01:44:38;;;;;;;1.93;1.83;;;6.90;99.90;;;;;;6119318;23;20393;-80
2021/10/14 01:47:23;;;;;;;1.92;1.83;;;6.90;99.90;;;;;;6118597;23;20708;-80
2021/10/14 01:50:10;;;;;;;1.77;1.67;;;6.90;99.90;;;;;;6100417;23;20506;-81
2021/10/14 01:52:56;;;;;;;1.95;1.85;;;6.90;99.90;;;;;;6095107;23;20386;-80
2021/10/14 01:55:42;;;;;;;2.27;2.10;;;6.90;99.90;;;;;;6085995;23;20387;-81
2021/10/14 01:58:28;;;;;;;2.08;1.90;;;7.00;99.90;;;;;;6061191;23;20970;-80
2021/10/14 02:01:13;;;;;;;1.98;1.88;;;7.00;99.90;;;;;;6076319;23;20370;-81
2021/10/14 02:03:59;;;;;;;2.40;2.20;;;7.00;99.90;;;;;;6101911;23;20457;-81
2021/10/14 02:06:45;;;;;;;2.08;1.98;;;7.00;99.90;;;;;;6103663;23;20381;-81
2021/10/14 02:09:31;;;;;;;2.80;1.73;;;7.00;99.90;;;;;;6105800;23;20885;-81
2021/10/14 02:12:17;;;;;;;2.90;2.40;;;7.10;99.90;;;;;;6115836;23;20691;-80
2021/10/14 02:15:03;;;;;;;2.70;2.50;;;7.10;99.90;;;;;;6086376;23;20429;-81
2021/10/14 02:17:49;;;;;;;2.22;2.03;;;7.00;99.90;;;;;;6080188;23;20405;-80
2021/10/14 02:20:35;;;;;;;2.00;1.90;;;7.00;99.90;;;;;;6120285;23;20437;-81
2021/10/14 02:23:22;;;;;;;2.47;2.10;;;7.00;99.90;;;;;;6140980;23;20953;-81
2021/10/14 02:26:07;;;;;;;2.22;2.03;;;7.10;99.90;;;;;;6098925;23;20941;-80
2021/10/14 02:28:52;;;;;;;2.05;1.95;;;7.10;99.90;;;;;;6118190;23;20378;-80
2021/10/14 02:31:39;;;;;;;2.85;2.65;;;7.10;99.90;;;;;;6080682;23;20421;-80
2021/10/14 02:34:26;;;;;;;3.20;2.28;;;7.10;99.90;;;;;;6081151;23;20370;-80
2021/10/14 02:37:11;;;;;;;2.40;2.00;;;7.10;99.90;;;;;;6101818;23;20415;-81
2021/10/14 02:39:59;;;;;;;2.45;2.25;;;7.10;99.90;;;;;;6080125;23;20374;-80
2021/10/14 02:42:44;;;;;;;2.60;2.40;;;7.10;99.90;;;;;;6085780;23;20903;-80
2021/10/14 02:45:31;;;;;;;2.37;2.20;;;7.10;99.90;;;;;;6103746;23;20448;-81
2021/10/14 02:48:17;;;;;;;2.65;2.45;;;7.20;99.90;;;;;;6097691;23;20427;-80
2021/10/14 02:51:04;;;;;;;3.10;2.40;;;7.20;99.90;;;;;;6100105;23;20870;-80
2021/10/14 02:53:49;;;;;;;2.85;2.35;;;7.10;99.90;;;;;;6075431;23;20389;-81
2021/10/14 02:56:35;;;;;;;2.72;2.50;;;7.20;99.90;;;;;;6098863;23;20383;-81
2021/10/14 02:59:21;;;;;;;2.60;2.40;;;7.20;99.90;;;;;;6124032;23;20424;-80
2021/10/14 03:02:10;;;;;;;2.38;2.08;;;7.20;99.90;;;;;;6117183;23;20391;-81
2021/10/14 03:04:56;;;;;;;3.00;2.70;;;7.20;99.90;;;;;;6102967;23;20711;-81
2021/10/14 03:07:41;;;;;;;2.75;2.55;;;7.20;99.90;;;;;;6096953;23;20422;-80
2021/10/14 03:10:27;;;;;;;2.65;2.45;;;7.30;99.90;;;;;;6118521;23;20382;-80
2021/10/14 03:13:13;;;;;;;3.00;2.53;;;7.30;99.90;;;;;;6077994;23;20429;-80
2021/10/14 03:15:59;;;;;;;2.73;2.50;;;7.30;99.90;;;;;;6098077;23;20382;-81
2021/10/14 03:18:44;;;;;;;4.20;2.63;;;7.40;99.90;;;;;;6116715;23;20459;-80
2021/10/14 03:21:29;;;;;;;3.00;2.72;;;7.40;99.90;;;;;;6117169;23;20386;-80
2021/10/14 03:24:14;;;;;;;5.07;4.60;;;7.40;99.90;;;;;;6077552;23;20486;-80
2021/10/14 03:26:59;;;;;;;4.25;3.28;;;7.40;99.90;;;;;;6120449;23;20935;-80
2021/10/14 03:29:45;;;;;;;3.00;2.78;;;7.40;99.90;;;;;;6110443;23;20399;-80
2021/10/14 03:32:31;;;;;;;3.20;2.90;;;7.40;99.90;;;;;;6069324;23;20381;-80
2021/10/14 03:35:17;;;;;;;2.83;2.60;;;7.40;99.90;;;;;;6114404;23;20444;-80
2021/10/14 03:38:03;;;;;;;2.67;2.47;;;7.50;99.90;;;;;;6101072;23;20401;-80
2021/10/14 03:40:49;;;;;;;2.80;2.60;;;7.50;99.90;;;;;;6116142;23;20759;-80
2021/10/14 03:43:35;;;;;;;3.30;2.83;;;7.50;99.90;;;;;;6139531;23;20370;-81
2021/10/14 03:46:21;;;;;;;3.30;2.75;;;7.60;99.90;;;;;;6079056;23;20465;-81
2021/10/14 03:49:22;;;;;;;5.95;3.22;;;7.50;99.90;;;;;;6103614;23;20443;-80
2021/10/14 03:52:12;;;;;;;3.33;3.03;;;7.60;99.90;;;;;;6119440;23;20378;-80
2021/10/14 03:59:11;;;;;;;3.70;3.10;;;7.60;99.90;;;;;;6158026;23;20403;-80
2021/10/14 04:19:51;;;;;;;3.80;3.20;;;7.60;99.90;;;;;;6004891;23;20473;-81
2021/10/14 04:23:24;;;;;;;3.17;2.92;;;7.60;99.90;;;;;;5956776;23;20391;-80
2021/10/14 04:31:28;;;;;;;3.80;3.50;;;7.70;99.90;;;;;;6025504;23;20374;-80
2021/10/14 04:34:17;;;;;;;3.97;3.57;;;7.70;99.90;;;;;;6076541;23;20925;-80
2021/10/14 04:37:06;;;;;;;3.83;3.40;;;7.70;99.90;;;;;;6071502;23;20457;-80
2021/10/14 04:40:15;;;;;;;3.67;3.38;;;7.70;99.90;;;;;;6081965;23;21094;-81
2021/10/14 05:33:54;;;;;;;2.40;2.27;;;8.00;99.90;;;;;;6194851;22;20374;-79
2021/10/14 05:36:42;;;;;;;2.75;2.55;;;8.00;99.90;;;;;;6145750;23;20408;-81
2021/10/14 05:39:32;;;;;;;2.77;2.57;;;8.00;99.90;;;;;;6117182;23;20370;-81
2021/10/14 05:42:17;;;;;;;2.75;2.55;;;8.00;99.90;;;;;;6074321;23;20378;-81
2021/10/14 05:45:03;;;;;;;2.70;2.50;;;8.00;99.90;;;;;;6074637;23;20374;-81
2021/10/14 05:47:49;;;;;;;4.53;2.70;;;8.00;99.90;;;;;;6076363;23;20405;-81
2021/10/14 05:50:36;;;;;;;2.60;2.40;;;8.00;99.90;;;;;;6099855;23;20385;-81
2021/10/14 05:53:22;;;;;;;2.90;2.67;;;8.00;99.90;;;;;;6100567;23;20489;-82
2021/10/14 05:56:07;;;;;;;2.90;2.63;;;8.00;99.90;;;;;;6064676;23;20463;-81
2021/10/14 05:58:55;;;;;;;1.75;1.65;;;8.00;99.90;;;;;;6079635;23;20720;-81
2021/10/14 06:01:42;;;;;;;3.08;2.00;;;8.00;99.90;;;;;;6113288;23;20374;-82
2021/10/14 06:04:30;;;;;;;2.00;1.90;;;8.10;99.90;;;;;;6077570;23;20532;-82
2021/10/14 06:07:21;;;;;;;2.17;1.95;;;8.10;99.90;;;;;;6104253;23;20957;-81
2021/10/14 06:10:10;;;;;;;2.00;1.90;;;8.20;99.90;;;;;;6121947;23;20920;-82
2021/10/14 06:13:17;;;;;;;1.80;1.70;;;8.20;99.90;;;;;;6144356;23;20377;-81
2021/10/14 06:16:06;;;;;;;2.50;2.28;;;8.10;99.90;;;;;;6106960;23;20393;-82
2021/10/14 06:19:10;;;;;;;1.85;1.75;;;8.20;99.90;;;;;;6100850;23;20378;-82
2021/10/14 06:22:01;;;;;;;2.10;2.00;;;8.20;99.90;;;;;;6105276;23;20397;-82
2021/10/14 06:24:49;;;;;;;1.90;1.80;;;8.20;99.90;;;;;;6131884;23;20711;-82
2021/10/14 06:27:58;;;;;;;2.03;1.88;;;8.20;99.90;;;;;;6067210;23;20377;-82
2021/10/14 06:30:59;;;;;;;1.73;1.63;;;8.20;99.90;;;;;;6112260;23;20376;-82
2021/10/14 06:34:05;;;;;;;2.20;2.00;;;8.20;99.90;;;;;;6140810;23;20377;-82
2021/10/14 06:36:58;;;;;;;2.33;2.13;;;8.30;99.90;;;;;;6048971;23;20486;-82
2021/10/14 06:39:54;;;;;;;2.20;2.03;;;8.20;99.90;;;;;;6041282;23;20390;-82
2021/10/14 06:42:44;;;;;;;2.40;2.20;;;8.20;99.90;;;;;;6080698;23;20398;-82
2021/10/14 06:45:47;;;;;;;2.63;2.42;;;8.30;99.90;;;;;;6077439;23;20441;-82
2021/10/14 06:48:50;;;;;;;2.30;2.10;;;8.30;99.90;;;;;;6141408;23;20426;-82
2021/10/14 06:51:55;;;;;;;2.50;2.30;;;8.30;99.90;;;;;;6064607;23;20591;-83
2021/10/14 06:54:47;;;;;;;2.70;2.50;;;8.40;99.90;;;;;;6109395;23;20798;-82
2021/10/14 06:57:55;;;;;;;2.07;1.97;;;8.40;99.90;;;;;;6072643;23;20408;-82
2021/10/14 07:00:50;;;;;;;2.35;2.15;;;8.40;99.90;;;;;;6136751;23;20390;-82
2021/10/14 07:04:08;;;;;;;2.33;2.13;;;8.50;99.90;;;;;;6110547;23;20455;-82
2021/10/14 07:30:04;;;;;;;2.80;2.00;;;8.60;99.90;;;;;;6137026;23;20721;-81
2021/10/14 07:34:10;;;;;;;2.30;2.17;;;8.80;99.90;;;;;;6178957;23;20398;-82
2021/10/14 08:03:44;;;;;;;1.77;1.63;;;9.00;99.90;;;;;;6090045;23;20347;-82
2021/10/14 08:36:46;;;;;;;2.30;2.15;;;9.40;99.90;;;;;;5999809;23;20394;-82
2021/10/14 09:42:42;;;;;;;3.75;3.45;;;10.50;99.90;;;;;;6133150;22;20381;-82
2021/10/14 09:45:33;;;;;;;4.32;3.88;;;10.40;99.90;;;;;;6108794;23;20400;-82
2021/10/14 09:52:48;;;;;;;3.47;3.28;;;10.40;99.90;;;;;;6174854;23;20390;-83
2021/10/14 09:55:46;;;;;;;3.97;3.58;;;10.60;99.90;;;;;;6130145;23;20393;-83
2021/10/14 10:09:19;;;;;;;4.07;3.03;;;10.70;99.90;;;;;;6139927;23;20759;-82
2021/10/14 10:12:07;;;;;;;3.67;3.10;;;10.70;99.90;;;;;;6143553;23;20369;-82
2021/10/14 10:14:54;;;;;;;3.07;2.83;;;10.60;99.90;;;;;;6133539;23;20909;-81
2021/10/14 10:30:50;;;;;;;2.85;2.65;;;10.70;99.90;;;;;;6158585;23;20471;31
2021/10/14 10:34:00;;;;;;;2.83;2.63;;;10.80;99.90;;;;;;6111660;23;20726;-83
2021/10/14 10:36:49;;;;;;;2.00;1.90;;;10.80;99.90;;;;;;6064337;23;20880;-82
2021/10/14 10:42:47;;;;;;;2.75;2.33;;;11.00;99.90;;;;;;6159785;23;21918;-81
2021/10/14 11:33:34;;;;;;;3.00;2.80;;;11.60;99.90;;;;;;6167651;23;20379;-81
2021/10/14 11:40:03;;;;;;;3.72;3.42;;;11.70;99.90;;;;;;6167743;23;20366;-81
2021/10/14 11:42:49;;;;;;;2.90;2.70;;;11.70;99.90;;;;;;6152924;23;20896;-81
2021/10/14 11:45:44;;;;;;;3.47;3.17;;;11.70;99.90;;;;;;6113721;23;20373;-81
2021/10/14 11:48:35;;;;;;;3.33;3.03;;;11.60;99.90;;;;;;6084267;23;20431;-82
2021/10/14 11:51:22;;;;;;;2.97;2.67;;;11.50;99.90;;;;;;6121982;23;20366;-82
2021/10/14 11:54:14;;;;;;;2.93;2.70;;;11.70;99.90;;;;;;6122254;23;20512;-81
2021/10/14 11:57:01;;;;;;;2.78;2.58;;;11.70;99.90;;;;;;6114806;23;20385;-83
2021/10/14 11:59:47;;;;;;;2.72;2.53;;;11.80;99.90;;;;;;6146171;23;20374;-82
2021/10/14 12:02:35;;;;;;;3.33;3.03;;;11.90;99.90;;;;;;6123368;23;20399;-81
2021/10/14 12:05:24;;;;;;;3.53;3.23;;;11.90;99.90;;;;;;6168800;23;20387;-82
2021/10/14 17:39:05;;;;;;;3.60;3.30;;;11.50;99.90;;;;;;6146955;23;20859;-85
2021/10/14 17:41:53;;;;;;;3.67;3.38;;;11.60;99.90;;;;;;6130149;23;20402;-81
2021/10/14 17:44:50;;;;;;;3.40;3.10;;;11.60;99.90;;;;;;6126206;23;20374;-82
2021/10/14 17:47:46;;;;;;;3.58;3.28;;;11.70;99.90;;;;;;6152892;23;20477;-83
2021/10/14 17:50:32;;;;;;;3.60;3.30;;;11.70;99.90;;;;;;6079053;23;20544;-88
2021/10/14 17:53:21;;;;;;;4.18;3.88;;;11.70;99.90;;;;;;6108870;23;20433;-86
2021/10/14 17:56:07;;;;;;;3.05;2.85;;;11.70;99.90;;;;;;6119416;23;20389;-82
2021/10/14 17:58:53;;;;;;;3.47;3.27;;;11.60;99.90;;;;;;6133299;23;20375;-86
2021/10/14 18:07:57;;;;;;;4.95;3.63;;;11.60;99.90;;;;;;6177068;22;20389;-82
2021/10/14 18:38:30;;;;;;;3.88;3.58;;;11.60;99.90;;;;;;6075880;23;20911;-82
2021/10/14 18:41:17;;;;;;;4.22;3.83;;;11.60;99.90;;;;;;6174245;23;20410;-82
2021/10/14 18:44:04;;;;;;;4.35;3.95;;;11.60;99.90;;;;;;6158684;23;21017;-81
2021/10/14 18:46:52;;;;;;;4.10;3.65;;;11.60;99.90;;;;;;6153459;23;20363;-82
2021/10/14 18:49:38;;;;;;;3.58;3.28;;;11.60;99.90;;;;;;6133425;23;20878;-84
2021/10/14 18:52:27;;;;;;;3.87;3.57;;;11.60;99.90;;;;;;6197905;23;20467;-80
2021/10/14 18:55:13;;;;;;;4.38;3.97;;;11.60;99.90;;;;;;6202435;23;20443;-81
2021/10/14 18:57:59;;;;;;;4.28;3.88;;;11.50;99.90;;;;;;6161317;23;20401;-81
2021/10/14 19:00:45;;;;;;;4.17;3.77;;;11.50;99.90;;;;;;6139658;23;20382;-84
2021/10/14 19:06:21;;;;;;;4.57;4.18;;;11.60;99.90;;;;;;6166265;23;20435;-81
2021/10/14 19:15:21;;;;;;;4.80;4.40;;;11.60;99.90;;;;;;6077137;23;20379;-80
2021/10/14 19:18:35;;;;;;;4.57;4.18;;;11.60;99.90;;;;;;6046280;23;20717;-81
2021/10/14 20:22:01;;;;;;;5.70;5.10;;;11.50;99.90;;;;;;6171779;22;20379;-80
2021/10/14 20:24:47;;;;;;;4.90;4.45;;;11.50;99.90;;;;;;6149973;23;20370;-80
2021/10/14 20:27:37;;;;;;;4.80;4.30;;;11.50;99.90;;;;;;6184150;23;20386;-83
2021/10/14 20:30:22;;;;;;;4.88;4.47;;;11.60;99.90;;;;;;6172590;23;20690;-80
2021/10/14 20:33:08;;;;;;;5.22;4.72;;;11.60;99.90;;;;;;6180363;23;20388;-82
2021/10/14 20:35:53;;;;;;;4.30;3.90;;;11.60;99.90;;;;;;6161576;23;20386;-81
2021/10/14 20:38:39;;;;;;;4.97;4.50;;;11.50;99.90;;;;;;6162158;23;20890;-80
2021/10/14 20:41:24;;;;;;;6.00;4.70;;;11.40;99.90;;;;;;6138280;23;20374;-82
2021/10/14 20:44:10;;;;;;;3.90;3.60;;;11.50;99.90;;;;;;6179446;23;20450;-83
2021/10/14 20:46:56;;;;;;;4.78;4.15;;;11.40;99.90;;;;;;6179527;23;20418;-82
2021/10/14 20:49:56;;;;;;;5.38;4.85;;;11.50;99.90;;;;;;6162185;23;20501;-84
2021/10/14 21:04:20;;;;;;;5.40;4.43;;;11.40;99.90;;;;;;6202130;23;20439;-81
2021/10/14 21:07:05;;;;;;;5.00;4.50;;;11.40;99.90;;;;;;6158872;23;20387;-88
2021/10/14 21:09:50;;;;;;;4.80;4.40;;;11.40;99.90;;;;;;6182218;23;20367;-81
2021/10/14 21:12:36;;;;;;;5.18;4.72;;;11.40;99.90;;;;;;6180564;23;20422;-82
2021/10/14 21:15:22;;;;;;;5.30;4.80;;;11.40;99.90;;;;;;6158892;23;20378;-82
2021/10/14 21:18:08;;;;;;;5.60;5.00;;;11.40;99.90;;;;;;6154650;23;20402;-81
2021/10/14 21:20:53;;;;;;;5.25;4.57;;;11.40;99.90;;;;;;6159075;23;20438;-80
2021/10/14 21:23:41;;;;;;;5.15;4.28;;;11.40;99.90;;;;;;6159373;23;20387;-80
2021/10/14 21:26:41;;;;;;;4.93;4.53;;;11.40;99.90;;;;;;6141746;23;20454;-81
2021/10/14 21:30:11;;;;;;;4.80;4.40;;;11.40;99.90;;;;;;6204336;23;20370;-82
2021/10/14 21:35:42;;;;;;;5.35;4.80;;;11.40;99.90;;;;;;6140104;23;20374;-83
2021/10/14 21:38:29;;;;;;;5.00;4.50;;;11.40;99.90;;;;;;6016304;23;20434;-82
2021/10/14 21:41:14;;;;;;;5.32;4.72;;;11.40;99.90;;;;;;6088564;23;20376;-81
2021/10/14 21:44:00;;;;;;;4.30;3.90;;;11.40;99.90;;;;;;6064140;23;20417;-81
2021/10/14 21:46:47;;;;;;;5.43;4.90;;;11.40;99.90;;;;;;6171318;23;20366;-81
2021/10/14 21:49:32;;;;;;;5.47;4.95;;;11.40;99.90;;;;;;6170565;23;20867;-82
2021/10/14 21:52:20;;;;;;;6.45;5.75;;;11.40;99.90;;;;;;6138432;23;21094;-80
2021/10/14 21:55:06;;;;;;;5.72;4.13;;;11.40;99.90;;;;;;6169712;23;20366;-80
2021/10/14 21:57:52;;;;;;;6.90;5.00;;;11.40;99.90;;;;;;6181044;23;20379;-80
2021/10/14 22:00:37;;;;;;;5.40;4.90;;;11.40;99.90;;;;;;6157671;23;20905;-80
2021/10/14 22:03:23;;;;;;;4.33;3.93;;;11.40;99.90;;;;;;6204636;23;20420;-81
2021/10/14 22:06:09;;;;;;;4.65;4.25;;;11.40;99.90;;;;;;6138841;23;20427;-80
2021/10/14 22:08:56;;;;;;;5.25;4.75;;;11.40;99.90;;;;;;6159752;23;20940;-86
2021/10/14 22:11:41;;;;;;;4.47;4.07;;;11.40;99.90;;;;;;6183262;23;20736;-81
2021/10/14 22:14:29;;;;;;;4.38;4.00;;;11.40;99.90;;;;;;6135258;23;20400;-80
2021/10/14 22:17:14;;;;;;;4.97;4.33;;;11.40;99.90;;;;;;6156279;23;20379;-83
2021/10/14 22:20:02;;;;;;;4.80;4.35;;;11.50;99.90;;;;;;6153558;23;20448;-80
2021/10/14 22:22:47;;;;;;;4.63;4.15;;;11.40;99.90;;;;;;6138627;23;20506;-80
2021/10/14 22:25:33;;;;;;;4.82;4.43;;;11.40;99.90;;;;;;6157480;23;20440;-83
2021/10/14 22:28:18;;;;;;;4.97;4.47;;;11.40;99.90;;;;;;6157578;23;20421;-80
2021/10/14 22:31:04;;;;;;;4.80;4.40;;;11.40;99.90;;;;;;6135524;23;20371;-79
2021/10/14 22:33:49;;;;;;;4.32;3.92;;;11.40;99.90;;;;;;6157972;23;20398;-86
2021/10/14 22:36:33;;;;;;;5.15;4.65;;;11.30;99.90;;;;;;6200787;23;20386;-80
2021/10/14 22:39:20;;;;;;;5.88;5.13;;;11.30;99.90;;;;;;6158103;23;20426;-80
2021/10/14 22:42:05;;;;;;;4.85;4.45;;;11.30;99.90;;;;;;6198928;23;20394;-82
2021/10/14 22:44:51;;;;;;;5.53;4.40;;;11.30;99.90;;;;;;6133321;23;20905;-81
2021/10/14 22:47:37;;;;;;;5.18;4.50;;;11.30;99.90;;;;;;6200431;23;20362;-80
2021/10/14 22:50:23;;;;;;;4.30;3.90;;;11.40;99.90;;;;;;6159325;23;20370;-83
2021/10/14 22:53:08;;;;;;;4.93;4.53;;;11.40;99.90;;;;;;6158542;23;20699;-87
2021/10/14 22:55:53;;;;;;;4.63;4.22;;;11.40;99.90;;;;;;6175027;23;20495;-80
2021/10/14 22:58:38;;;;;;;5.28;4.72;;;11.30;99.90;;;;;;6203949;23;20516;-83
2021/10/14 23:01:24;;;;;;;4.38;3.97;;;11.30;99.90;;;;;;6141262;23;20701;-83
2021/10/14 23:04:10;;;;;;;5.10;4.70;;;11.30;99.90;;;;;;6141146;23;20837;-82
2021/10/14 23:06:58;;;;;;;4.57;4.18;;;11.30;99.90;;;;;;6168476;23;20371;-81
2021/10/14 23:09:44;;;;;;;4.82;4.38;;;11.30;99.90;;;;;;6196474;23;20375;-88
2021/10/14 23:12:30;;;;;;;4.60;3.80;;;11.30;99.90;;;;;;6183658;23;20417;-82
2021/10/14 23:15:15;;;;;;;4.32;3.92;;;11.30;99.90;;;;;;6142225;23;20363;-80
2021/10/14 23:18:01;;;;;;;4.60;4.20;;;11.30;99.90;;;;;;6165850;23;20459;-78
2021/10/14 23:20:47;;;;;;;3.85;3.53;;;11.30;99.90;;;;;;6163886;23;20374;-81
2021/10/14 23:23:33;;;;;;;4.07;3.67;;;11.40;99.90;;;;;;6139074;23;20444;-85
2021/10/14 23:26:18;;;;;;;4.10;3.80;;;11.40;99.90;;;;;;6157728;23;20426;-82
2021/10/14 23:29:04;;;;;;;4.88;4.45;;;11.30;99.90;;;;;;6157600;23;20459;-81
2021/10/14 23:31:50;;;;;;;4.90;4.47;;;11.40;99.90;;;;;;6163736;23;20946;-83
2021/10/14 23:34:35;;;;;;;3.70;3.40;;;11.30;99.90;;;;;;6159594;23;20429;-83
2021/10/14 23:37:20;;;;;;;4.63;4.22;;;11.30;99.90;;;;;;6165792;23;20918;-83
2021/10/14 23:40:05;;;;;;;4.43;3.83;;;11.30;99.90;;;;;;6201460;23;20765;-80
2021/10/14 23:42:51;;;;;;;4.28;3.72;;;11.30;99.90;;;;;;6162875;23;20490;-79
2021/10/14 23:45:36;;;;;;;4.47;4.07;;;11.30;99.90;;;;;;6157952;23;20861;-79
2021/10/14 23:48:21;;;;;;;4.03;3.72;;;11.30;99.90;;;;;;6161434;23;20370;-79
2021/10/14 23:51:06;;;;;;;4.65;3.92;;;11.30;99.90;;;;;;6139585;23;20425;-80
2021/10/14 23:53:51;;;;;;;4.68;4.28;;;11.30;99.90;;;;;;6182490;23;20575;-85
2021/10/14 23:56:36;;;;;;;5.47;4.95;;;11.30;99.90;;;;;;6161660;23;20931;-79
2021/10/14 23:59:21;;;;;;;5.07;4.22;;;11.20;99.90;;;;;;6161411;23;20430;-83
